WetterOnline ( https://www.wetteronline.de )

Wetter aktuell Fehrbellin

Aktuelles Wetter: Neuruppin - Alt Ruppin (50m)

6-stündlich | Neueste Meldungen
Ortszeit Temperatur Wetter
Mi, 23.10. 20:00 12.5° C leicht bewölkt
Mi, 23.10. 14:00 15.3° C wolkenlos
Mi, 23.10. 8:00 4.6° C bewölkt
Mi, 23.10. 2:00 5.6° C wolkig
Di, 22.10. 20:00 10.2° C leicht bewölkt
Di, 22.10. 14:00 14.6° C bewölkt
Di, 22.10. 8:00 9.4° C bewölkt
Di, 22.10. 2:00 10.8° C Nebel
Ortszeit Temperatur Wetter
Mi, 23.10. 22:30 10.9° C wolkig
Mi, 23.10. 22:20 10.9° C wolkig
Mi, 23.10. 22:10 11.1° C leicht bewölkt
Mi, 23.10. 22:00 11.6° C fast wolkenlos
Mi, 23.10. 21:50 11.6° C fast wolkenlos
Mi, 23.10. 21:40 11.9° C leicht bewölkt
Mi, 23.10. 21:30 12.3° C leicht bewölkt
Mi, 23.10. 21:00 12.5° C leicht bewölkt
Mi, 23.10. 20:30 12.8° C wolkenlos
Mi, 23.10. 20:00 12.5° C leicht bewölkt
Mi, 23.10. 19:30 12.4° C leicht bewölkt
Mi, 23.10. 19:00 12.7° C wolkenlos
Ortszeit Relative Feuchte Sichtweite
Mi, 23.10. 20:00 89% 16 km
Mi, 23.10. 14:00 73% 24 km
Mi, 23.10. 8:00 99% 6 km
Mi, 23.10. 2:00 97% 13 km
Di, 22.10. 20:00 90% 35 km
Di, 22.10. 14:00 70% 45 km
Di, 22.10. 8:00 98% 11 km
Di, 22.10. 2:00 98% 0.7 km
Ortszeit Relative Feuchte Sichtweite
Mi, 23.10. 22:30 95% 7 km
Mi, 23.10. 22:20 95% -
Mi, 23.10. 22:10 94% -
Mi, 23.10. 22:00 92% 11 km
Mi, 23.10. 21:50 92% -
Mi, 23.10. 21:40 92% -
Mi, 23.10. 21:30 90% 15 km
Mi, 23.10. 21:00 88% 15 km
Mi, 23.10. 20:30 88% 13 km
Mi, 23.10. 20:00 89% 16 km
Mi, 23.10. 19:30 89% 16 km
Mi, 23.10. 19:00 88% 13 km
Ortszeit Niederschlagsmenge Niederschlagsart
Mi, 23.10. 20:00 0.0 l/m2 in 12 Std. -
Mi, 23.10. 14:00 0.0 l/m2 in 6 Std. -
Mi, 23.10. 8:00 0.0 l/m2 in 12 Std. -
Mi, 23.10. 2:00 0.0 l/m2 in 6 Std. -
Di, 22.10. 20:00 0.0 l/m2 in 12 Std. -
Di, 22.10. 14:00 0.0 l/m2 in 6 Std. -
Di, 22.10. 8:00 0.0 l/m2 in 12 Std. -
Di, 22.10. 2:00 0.0 l/m2 in 6 Std. -
Ortszeit Niederschlagsmenge Niederschlagsart
Mi, 23.10. 22:30 0.0 l/m2 in 1 Std. -
Mi, 23.10. 22:20 keine Meldung -
Mi, 23.10. 22:10 keine Meldung -
Mi, 23.10. 22:00 0.0 l/m2 in 1 Std. -
Mi, 23.10. 21:50 keine Meldung -
Mi, 23.10. 21:40 keine Meldung -
Mi, 23.10. 21:30 0.0 l/m2 in 1 Std. -
Mi, 23.10. 21:00 0.0 l/m2 in 1 Std. -
Mi, 23.10. 20:30 0.0 l/m2 in 1 Std. -
Mi, 23.10. 20:00 0.0 l/m2 in 1 Std. -
Mi, 23.10. 19:30 0.0 l/m2 in 1 Std. -
Mi, 23.10. 19:00 0.0 l/m2 in 1 Std. -
Ortszeit Stärke Spitze Richtung
km/h Bft. km/h Grad Sektor
Mi, 23.10. 20:00 7 2 22 100° O
Mi, 23.10. 14:00 11 2 18 90° O
Mi, 23.10. 8:00 4 1 7 80° O
Mi, 23.10. 2:00 0 0 7 - -
Di, 22.10. 20:00 4 1 25 300° NW
Di, 22.10. 14:00 11 2 25 250° W
Di, 22.10. 8:00 2 1 13 170° S
Di, 22.10. 2:00 0 0 4 - -
Ortszeit Stärke Spitze Richtung
km/h Bft. km/h Grad Sektor
Mi, 23.10. 22:30 7 2 11 90° O
Mi, 23.10. 22:20 7 2 - 90° O
Mi, 23.10. 22:10 7 2 - 90° O
Mi, 23.10. 22:00 7 2 15 100° O
Mi, 23.10. 21:50 7 2 - 100° O
Mi, 23.10. 21:40 7 2 - 100° O
Mi, 23.10. 21:30 6 1 15 110° O
Mi, 23.10. 21:00 7 2 18 100° O
Mi, 23.10. 20:30 11 2 18 100° O
Mi, 23.10. 20:00 7 2 14 100° O
Mi, 23.10. 19:30 7 2 11 90° O
Mi, 23.10. 19:00 6 1 17 80° O
Ortszeit Untergrenze Bedeckung Gattung
total tief tief mittel hoch
Mi, 23.10. 20:00 10500 m 3/8 0/8 - - -
Mi, 23.10. 14:00 10500 m 0/8 0/8 - - -
Mi, 23.10. 8:00 <30 m 8/8 0/8 - - -
Mi, 23.10. 2:00 9000 m 8/8 0/8 - - -
Di, 22.10. 20:00 10500 m 6/8 0/8 - - -
Di, 22.10. 14:00 6000 m 8/8 7/8 - - -
Di, 22.10. 8:00 3000 m 7/8 7/8 - - -
Di, 22.10. 2:00 2400 m 6/8 7/8 - - -
Ortszeit Bedeckungsgrad in Achtel und Wolkenuntergrenze
Mi, 23.10. 22:30 7(10500m)
Mi, 23.10. 22:20 7(10500m)
Mi, 23.10. 22:10 5(10500m)
Mi, 23.10. 22:00 2(10500m)
Mi, 23.10. 21:50 2(10500m)
Mi, 23.10. 21:40 3(10500m)
Mi, 23.10. 21:30 1(10500m) 3(10500m)
Mi, 23.10. 21:00 6(10500m) 7(10500m)
Mi, 23.10. 20:30 keine Wolken
Mi, 23.10. 20:00 3(10500m)
Mi, 23.10. 19:30 3(10500m)
Mi, 23.10. 19:00 keine Wolken
Ortszeit Luftdruck NN (hPa) Tendenz (hPa in 3 Std.)
Mi, 23.10. 20:00 1017 - 1,0
Mi, 23.10. 14:00 1019 - 3,0
Mi, 23.10. 8:00 1023 - 0,5
Mi, 23.10. 2:00 1024 - 0,6
Di, 22.10. 20:00 1024 + 0,7
Di, 22.10. 14:00 1024 0,0
Di, 22.10. 8:00 1023 + 0,7
Di, 22.10. 2:00 1021 + 0,6
Ortszeit Luftdruck NN (hPa) Tendenz (hPa in 3 Std.)
Mi, 23.10. 22:30 1016 - 1,5
Mi, 23.10. 22:20 1016 keine Meldung
Mi, 23.10. 22:10 1016 keine Meldung
Mi, 23.10. 22:00 1016 - 0,9
Mi, 23.10. 21:50 1016 keine Meldung
Mi, 23.10. 21:40 1016 keine Meldung
Mi, 23.10. 21:30 1017 - 0,7
Mi, 23.10. 21:00 1017 - 0,7
Mi, 23.10. 20:30 1017 - 0,9
Mi, 23.10. 20:00 1017 - 1,0
Mi, 23.10. 19:30 1017 - 0,9
Mi, 23.10. 19:00 1017 - 1,2
Ortszeit Schneehöhe (cm)
Mi, 23.10. 20:00 0
Mi, 23.10. 14:00 0
Mi, 23.10. 8:00 0
Mi, 23.10. 2:00 0
Di, 22.10. 20:00 0
Di, 22.10. 14:00 0
Di, 22.10. 8:00 0
Di, 22.10. 2:00 0
Ortszeit Schneehöhe (cm)
Mi, 23.10. 22:30 0
Mi, 23.10. 22:20 0
Mi, 23.10. 22:10 0
Mi, 23.10. 22:00 0
Mi, 23.10. 21:50 0
Mi, 23.10. 21:40 0
Mi, 23.10. 21:30 0
Mi, 23.10. 21:00 0
Mi, 23.10. 20:30 0
Mi, 23.10. 20:00 0
Mi, 23.10. 19:30 0
Mi, 23.10. 19:00 0
Link zu dieser Seite / Seite empfehlen

Das Wetter in ...